Time;durP1;ratioP1;P1;durP2;ratioP2;P2;SDS_P1;SDS_P2;PMS_P1;PMS_P2;Temp;Humidity;BMP_temperature;BMP_pressure;BME280_temperature;BME280_humidity;BME280_pressure;Samples;Min_cycle;Max_cycle;Signal;HPM_P1;HPM_P2
2022/05/30 00:00:33;;;;;;;22.63;13.53;;;;;;;;;;6279872;28;20075;-78
2022/05/30 00:03:34;;;;;;;18.37;12.93;;;;;;;;;;6285595;28;20320;-77
2022/05/30 00:06:34;;;;;;;28.40;16.92;;;;;;;;;;6286628;28;20289;-78
2022/05/30 00:09:35;;;;;;;25.23;15.05;;;;;;;;;;6288453;28;20059;-78
2022/05/30 00:12:35;;;;;;;25.33;14.45;;;;;;;;;;6287790;28;20041;-78
2022/05/30 00:15:36;;;;;;;21.50;12.57;;;;;;;;;;6288336;28;20109;-78
2022/05/30 00:18:37;;;;;;;20.60;12.65;;;;;;;;;;6284078;28;20039;-78
2022/05/30 00:21:38;;;;;;;17.33;11.73;;;;;;;;;;6287609;28;20013;-80
2022/05/30 00:24:38;;;;;;;17.23;12.98;;;;;;;;;;6276615;28;20025;-78
2022/05/30 00:27:38;;;;;;;20.48;12.45;;;;;;;;;;6280588;28;20075;-78
2022/05/30 00:30:39;;;;;;;21.38;12.13;;;;;;;;;;6286233;28;20024;-78
2022/05/30 00:33:40;;;;;;;18.75;11.50;;;;;;;;;;6299680;28;20029;-77
2022/05/30 00:36:41;;;;;;;18.60;12.15;;;;;;;;;;6288505;28;20466;-78
2022/05/30 00:39:41;;;;;;;18.50;10.43;;;;;;;;;;6291433;28;20025;-78
2022/05/30 00:42:41;;;;;;;19.50;12.98;;;;;;;;;;6286789;28;20255;-78
2022/05/30 00:45:41;;;;;;;19.83;14.05;;;;;;;;;;6288224;28;20017;-78
2022/05/30 00:48:44;;;;;;;21.33;12.05;;;;;;;;;;6291436;28;20001;-78
2022/05/30 00:51:47;;;;;;;20.92;14.13;;;;;;;;;;6280454;28;20511;-78
2022/05/30 00:54:47;;;;;;;18.98;12.32;;;;;;;;;;6282286;28;20036;-78
2022/05/30 00:57:48;;;;;;;16.57;12.00;;;;;;;;;;6288452;28;20028;-78
2022/05/30 01:00:48;;;;;;;20.92;13.40;;;;;;;;;;6291970;28;20016;-78
2022/05/30 01:07:17;;;;;;;17.67;12.80;;;;;;;;;;6294800;28;20041;-78
2022/05/30 01:10:19;;;;;;;24.58;15.55;;;;;;;;;;6287178;28;20013;-78
2022/05/30 01:13:19;;;;;;;;;;;;;;;;;;6297263;28;20029;-79
2022/05/30 01:16:20;;;;;;;19.15;12.73;;;;;;;;;;6297853;28;19923;-78
2022/05/30 01:19:20;;;;;;;19.40;13.23;;;;;;;;;;6298607;28;20033;-78
2022/05/30 01:22:40;;;;;;;18.42;12.40;;;;;;;;;;6295838;28;20033;-79
2022/05/30 01:25:59;;;;;;;24.23;12.77;;;;;;;;;;6298410;28;20021;-79
2022/05/30 01:29:11;;;;;;;20.48;12.07;;;;;;;;;;6273819;28;20034;-79
2022/05/30 01:32:19;;;;;;;18.88;10.30;;;;;;;;;;6291991;28;20035;-79
2022/05/30 01:35:23;;;;;;;16.90;11.73;;;;;;;;;;6296428;28;20033;-78
2022/05/30 01:38:24;;;;;;;17.63;10.02;;;;;;;;;;6295440;28;20025;-78
2022/05/30 01:41:24;;;;;;;23.45;11.75;;;;;;;;;;6285348;28;20024;-79
2022/05/30 01:44:25;;;;;;;17.48;11.50;;;;;;;;;;6299276;28;20013;-79
2022/05/30 01:47:25;;;;;;;18.50;11.88;;;;;;;;;;6298869;28;20016;-79
2022/05/30 01:50:27;;;;;;;22.42;12.18;;;;;;;;;;6293935;28;20017;-79
2022/05/30 01:53:27;;;;;;;20.17;12.63;;;;;;;;;;6301442;28;20034;-79
2022/05/30 01:56:27;;;;;;;22.73;14.05;;;;;;;;;;6291177;28;20029;-78
2022/05/30 01:59:28;;;;;;;23.90;13.00;;;;;;;;;;6290621;28;20029;-80
2022/05/30 02:02:28;;;;;;;22.10;12.60;;;;;;;;;;6298518;28;20073;-79
2022/05/30 02:05:30;;;;;;;20.03;13.53;;;;;;;;;;6304608;28;20021;-79
2022/05/30 02:08:30;;;;;;;19.02;12.75;;;;;;;;;;6304782;28;20263;-79
2022/05/30 02:11:31;;;;;;;18.73;13.60;;;;;;;;;;6305681;28;20024;-78
2022/05/30 02:14:31;;;;;;;20.60;13.75;;;;;;;;;;6305669;28;20285;-79
2022/05/30 02:17:32;;;;;;;21.07;14.53;;;;;;;;;;6304637;28;20029;-79
2022/05/30 02:20:32;;;;;;;22.95;15.70;;;;;;;;;;6305679;28;20293;-79
2022/05/30 02:23:32;;;;;;;24.05;14.35;;;;;;;;;;6305882;28;20029;-79
2022/05/30 02:26:34;;;;;;;24.13;14.52;;;;;;;;;;6302360;28;20024;-78
2022/05/30 02:29:34;;;;;;;19.45;13.90;;;;;;;;;;6298969;28;20021;-78
2022/05/30 02:32:34;;;;;;;21.23;13.98;;;;;;;;;;6287280;28;20256;-78
2022/05/30 02:38:54;;;;;;;17.75;14.02;;;;;;;;;;6302924;28;20239;-79
2022/05/30 02:41:54;;;;;;;16.58;12.70;;;;;;;;;;6299348;28;20035;-77
2022/05/30 02:44:54;;;;;;;18.85;11.98;;;;;;;;;;6304114;28;20070;-77
2022/05/30 02:47:54;;;;;;;19.73;11.97;;;;;;;;;;6299663;28;20037;-77
2022/05/30 02:50:55;;;;;;;19.60;11.90;;;;;;;;;;6294785;28;20263;-77
2022/05/30 02:53:55;;;;;;;16.90;12.17;;;;;;;;;;6302680;28;20287;-78
2022/05/30 02:56:57;;;;;;;22.20;12.75;;;;;;;;;;6288144;28;20297;-78
2022/05/30 02:59:57;;;;;;;28.02;15.60;;;;;;;;;;6295164;28;20025;-78
2022/05/30 03:02:57;;;;;;;23.43;16.13;;;;;;;;;;6303535;28;20048;-78
2022/05/30 03:05:57;;;;;;;23.77;13.17;;;;;;;;;;6287752;28;20302;-78
2022/05/30 03:08:57;;;;;;;21.60;12.70;;;;;;;;;;6298508;28;20275;-78
2022/05/30 03:11:58;;;;;;;19.88;13.57;;;;;;;;;;6295728;28;20023;-78
2022/05/30 03:14:58;;;;;;;19.83;13.15;;;;;;;;;;6295722;28;20016;-78
2022/05/30 03:17:58;;;;;;;18.85;13.13;;;;;;;;;;6297415;28;20032;-79
2022/05/30 03:20:59;;;;;;;18.67;12.30;;;;;;;;;;6298418;28;20052;-78
2022/05/30 03:23:59;;;;;;;20.38;14.20;;;;;;;;;;6300174;28;20017;-78
2022/05/30 03:26:59;;;;;;;18.70;14.07;;;;;;;;;;6289826;28;20009;-78
2022/05/30 03:29:59;;;;;;;21.15;13.65;;;;;;;;;;6297505;28;20021;-78
2022/05/30 03:33:00;;;;;;;20.50;13.67;;;;;;;;;;6290945;28;20080;-78
2022/05/30 03:36:00;;;;;;;21.98;14.68;;;;;;;;;;6294746;28;20317;-78
2022/05/30 03:39:01;;;;;;;21.52;13.82;;;;;;;;;;6293587;28;20029;-78
2022/05/30 03:42:01;;;;;;;24.15;13.60;;;;;;;;;;6290340;28;20111;-77
2022/05/30 03:45:01;;;;;;;19.63;13.20;;;;;;;;;;6283342;28;20029;-77
2022/05/30 03:48:02;;;;;;;23.48;13.75;;;;;;;;;;6288553;28;20271;-77
2022/05/30 03:51:04;;;;;;;25.08;14.80;;;;;;;;;;6289767;28;20037;-78
2022/05/30 03:54:04;;;;;;;21.45;13.57;;;;;;;;;;6283992;28;20021;-78
2022/05/30 03:57:04;;;;;;;21.23;13.95;;;;;;;;;;6288789;28;20021;-78
2022/05/30 04:00:05;;;;;;;21.77;15.32;;;;;;;;;;6287215;28;20018;-77
2022/05/30 04:03:06;;;;;;;21.17;14.20;;;;;;;;;;6273141;28;20025;-78
2022/05/30 04:06:07;;;;;;;20.17;14.43;;;;;;;;;;6280695;28;20024;-78
2022/05/30 04:09:07;;;;;;;18.58;13.73;;;;;;;;;;6282706;28;20075;-77
2022/05/30 04:12:08;;;;;;;19.08;14.45;;;;;;;;;;6282949;28;20081;-77
2022/05/30 04:15:11;;;;;;;20.55;13.25;;;;;;;;;;6275317;28;20032;-77
2022/05/30 04:18:12;;;;;;;21.60;15.85;;;;;;;;;;6278275;28;20024;-77
2022/05/30 04:21:13;;;;;;;18.77;12.68;;;;;;;;;;6283522;28;20033;-77
2022/05/30 04:24:13;;;;;;;19.05;12.43;;;;;;;;;;6277514;28;20021;-77
2022/05/30 04:27:13;;;;;;;16.33;11.63;;;;;;;;;;6278529;28;20042;-77
2022/05/30 04:30:16;;;;;;;17.17;11.98;;;;;;;;;;6277387;28;20271;-77
2022/05/30 04:33:16;;;;;;;17.30;12.02;;;;;;;;;;6276311;28;20473;-77
2022/05/30 04:36:17;;;;;;;20.43;12.27;;;;;;;;;;6275214;28;20028;-77
2022/05/30 04:39:17;;;;;;;18.50;12.10;;;;;;;;;;6272448;28;20271;-77
2022/05/30 04:42:17;;;;;;;18.37;12.37;;;;;;;;;;6272690;28;20260;-77
2022/05/30 04:45:17;;;;;;;17.98;11.85;;;;;;;;;;6264713;28;20623;-77
2022/05/30 04:48:17;;;;;;;19.38;12.77;;;;;;;;;;6271264;28;20021;-77
2022/05/30 04:51:18;;;;;;;15.17;9.87;;;;;;;;;;6269710;28;20556;-77
2022/05/30 04:54:19;;;;;;;14.60;11.00;;;;;;;;;;6261797;28;20282;-77
2022/05/30 04:57:19;;;;;;;14.23;9.73;;;;;;;;;;6270659;28;20266;-77
2022/05/30 05:00:21;;;;;;;14.13;10.83;;;;;;;;;;6271404;28;20013;-77
2022/05/30 05:03:21;;;;;;;17.33;11.75;;;;;;;;;;6270956;28;20275;-77
2022/05/30 05:06:22;;;;;;;15.80;9.83;;;;;;;;;;6270372;28;20098;-77
2022/05/30 05:09:24;;;;;;;12.70;8.95;;;;;;;;;;6264503;28;20378;-77
2022/05/30 05:12:24;;;;;;;;;;;;;;;;;;6262214;28;20029;-78
2022/05/30 05:15:24;;;;;;;13.75;9.10;;;;;;;;;;6268006;28;19920;-77
2022/05/30 05:18:24;;;;;;;13.87;8.87;;;;;;;;;;6262343;28;20021;-78
2022/05/30 05:21:29;;;;;;;13.63;8.17;;;;;;;;;;6267944;28;20379;-78
2022/05/30 05:24:29;;;;;;;14.60;9.52;;;;;;;;;;6264578;28;20272;-78
2022/05/30 05:27:30;;;;;;;14.50;9.48;;;;;;;;;;6258472;28;20103;-78
2022/05/30 05:30:30;;;;;;;12.70;8.45;;;;;;;;;;6272189;28;20376;-78
2022/05/30 05:33:30;;;;;;;14.07;9.00;;;;;;;;;;6262929;28;20028;-77
2022/05/30 05:36:32;;;;;;;11.82;8.68;;;;;;;;;;6262872;28;20495;-77
2022/05/30 05:39:33;;;;;;;12.00;9.03;;;;;;;;;;6268143;28;20021;-77
2022/05/30 05:42:33;;;;;;;17.38;7.78;;;;;;;;;;6273295;28;20631;-77
2022/05/30 05:45:34;;;;;;;13.20;8.63;;;;;;;;;;6289415;28;20017;-77
2022/05/30 05:48:35;;;;;;;13.73;8.55;;;;;;;;;;6297987;28;20353;-78
2022/05/30 05:51:35;;;;;;;12.00;8.55;;;;;;;;;;6287947;28;20025;-77
2022/05/30 05:54:36;;;;;;;16.13;10.18;;;;;;;;;;6291836;28;20028;-78
2022/05/30 05:57:36;;;;;;;12.38;8.70;;;;;;;;;;6290675;28;20032;-78
2022/05/30 06:00:36;;;;;;;15.33;8.10;;;;;;;;;;6282293;28;20025;-78
2022/05/30 06:03:37;;;;;;;11.73;8.18;;;;;;;;;;6276629;28;20274;-78
2022/05/30 06:06:37;;;;;;;12.35;8.20;;;;;;;;;;6277530;28;20035;-78
2022/05/30 06:09:38;;;;;;;14.87;10.77;;;;;;;;;;6270332;28;20048;-78
2022/05/30 06:12:42;;;;;;;13.07;6.97;;;;;;;;;;6272354;28;20770;-78
2022/05/30 06:15:42;;;;;;;12.52;7.32;;;;;;;;;;6267177;28;20075;-77
2022/05/30 06:18:42;;;;;;;8.30;5.60;;;;;;;;;;6265685;28;20017;-77
2022/05/30 06:21:43;;;;;;;7.68;4.82;;;;;;;;;;6263087;28;20336;-77
2022/05/30 06:24:43;;;;;;;11.10;5.57;;;;;;;;;;6258732;28;20102;-77
2022/05/30 06:27:43;;;;;;;7.90;5.57;;;;;;;;;;6266802;28;20271;-77
2022/05/30 06:30:43;;;;;;;6.55;5.13;;;;;;;;;;6279107;28;20025;-78
2022/05/30 06:33:44;;;;;;;7.90;5.73;;;;;;;;;;6260580;28;20083;-78
2022/05/30 06:36:44;;;;;;;5.38;4.53;;;;;;;;;;6254170;28;20305;-78
2022/05/30 06:39:45;;;;;;;7.43;4.82;;;;;;;;;;6269192;28;20009;-78
2022/05/30 06:42:45;;;;;;;7.65;4.88;;;;;;;;;;6267650;28;20059;-77
2022/05/30 06:45:48;;;;;;;8.03;4.53;;;;;;;;;;6263550;28;20542;-77
2022/05/30 06:48:49;;;;;;;8.40;5.47;;;;;;;;;;6258328;28;20306;-79
2022/05/30 06:51:49;;;;;;;8.68;4.45;;;;;;;;;;6258970;28;20022;-79
2022/05/30 06:54:49;;;;;;;6.53;4.77;;;;;;;;;;6261832;28;20044;-78
2022/05/30 07:01:09;;;;;;;6.30;3.72;;;;;;;;;;6282786;28;20243;-79
2022/05/30 07:04:09;;;;;;;6.63;3.45;;;;;;;;;;6281015;28;20032;-79
2022/05/30 07:07:10;;;;;;;5.70;4.03;;;;;;;;;;6282264;28;20028;-79
2022/05/30 07:10:11;;;;;;;6.30;4.03;;;;;;;;;;6278940;28;20388;-79
2022/05/30 07:13:12;;;;;;;5.55;2.92;;;;;;;;;;6272512;28;20048;-79
2022/05/30 07:16:12;;;;;;;6.93;3.90;;;;;;;;;;6270239;28;20444;-79
2022/05/30 07:19:12;;;;;;;7.97;3.57;;;;;;;;;;6260388;28;20033;-79
2022/05/30 07:22:13;;;;;;;5.47;3.57;;;;;;;;;;6266811;28;20023;-79
2022/05/30 07:25:13;;;;;;;4.47;3.23;;;;;;;;;;6261754;28;20271;-76
2022/05/30 07:28:13;;;;;;;4.45;2.92;;;;;;;;;;6266012;28;20272;-78
2022/05/30 07:31:15;;;;;;;5.10;3.22;;;;;;;;;;6266800;28;20116;-78
2022/05/30 07:34:15;;;;;;;7.28;2.53;;;;;;;;;;6267389;28;20025;-79
2022/05/30 07:37:15;;;;;;;4.90;2.25;;;;;;;;;;6260402;28;20022;-79
2022/05/30 07:40:16;;;;;;;4.77;3.43;;;;;;;;;;6263862;28;20017;-79
2022/05/30 07:43:16;;;;;;;5.10;3.47;;;;;;;;;;6272947;28;20013;-79
2022/05/30 07:46:17;;;;;;;8.37;4.40;;;;;;;;;;6266668;28;20017;-79
2022/05/30 07:49:18;;;;;;;9.15;4.25;;;;;;;;;;6266938;28;20029;-78
2022/05/30 07:52:18;;;;;;;9.20;3.57;;;;;;;;;;6266470;28;20084;-78
2022/05/30 07:55:18;;;;;;;4.73;2.20;;;;;;;;;;6263632;28;20032;-78
2022/05/30 07:58:19;;;;;;;17.00;5.77;;;;;;;;;;6272259;28;20020;-78
2022/05/30 08:01:20;;;;;;;4.77;2.53;;;;;;;;;;6271556;28;20012;-79
2022/05/30 08:04:20;;;;;;;4.68;2.75;;;;;;;;;;6267902;28;20009;-79
2022/05/30 08:07:21;;;;;;;3.80;2.30;;;;;;;;;;6279428;28;20021;-78
2022/05/30 08:10:21;;;;;;;3.90;2.20;;;;;;;;;;6279753;28;19997;-78
2022/05/30 08:13:22;;;;;;;5.13;2.90;;;;;;;;;;6281068;28;20042;-78
2022/05/30 08:16:23;;;;;;;5.20;3.20;;;;;;;;;;6280461;28;20041;-78
2022/05/30 08:19:24;;;;;;;7.75;3.75;;;;;;;;;;6281081;28;20149;-78
2022/05/30 08:22:24;;;;;;;10.20;2.83;;;;;;;;;;6270707;28;20027;-79
2022/05/30 08:25:24;;;;;;;8.43;3.20;;;;;;;;;;6274773;28;20121;-78
2022/05/30 08:28:24;;;;;;;12.03;4.93;;;;;;;;;;6274026;28;20082;-78
2022/05/30 08:31:25;;;;;;;12.20;4.43;;;;;;;;;;6271654;28;20060;-78
2022/05/30 08:34:25;;;;;;;9.00;4.40;;;;;;;;;;6269001;28;20461;-78
2022/05/30 08:37:30;;;;;;;13.07;5.73;;;;;;;;;;6266050;28;20401;-78
2022/05/30 08:43:54;;;;;;;12.15;5.93;;;;;;;;;;6259681;28;20037;-79
2022/05/30 08:47:00;;;;;;;19.27;8.75;;;;;;;;;;6263716;28;20088;-79
2022/05/30 08:50:23;;;;;;;26.00;10.90;;;;;;;;;;6258772;28;20017;-78
2022/05/30 08:53:27;;;;;;;17.33;8.02;;;;;;;;;;6249711;28;20552;-79
2022/05/30 08:56:27;;;;;;;13.25;6.97;;;;;;;;;;6266214;28;20013;-78
2022/05/30 08:59:46;;;;;;;23.60;10.87;;;;;;;;;;6261149;28;20705;-77
2022/05/30 09:02:49;;;;;;;22.92;9.35;;;;;;;;;;6258937;28;20020;-78
2022/05/30 09:05:59;;;;;;;15.32;8.95;;;;;;;;;;6268388;28;20029;-78
2022/05/30 09:09:02;;;;;;;8.40;4.68;;;;;;;;;;6266234;28;20029;-78
2022/05/30 09:12:02;;;;;;;10.15;5.72;;;;;;;;;;6260833;28;20092;-78
2022/05/30 09:15:06;;;;;;;11.40;6.17;;;;;;;;;;6266389;28;21025;-78
2022/05/30 09:18:09;;;;;;;6.68;4.97;;;;;;;;;;6268197;28;20043;-77
2022/05/30 09:21:09;;;;;;;9.38;4.47;;;;;;;;;;6270197;28;20116;-77
2022/05/30 09:24:11;;;;;;;4.73;3.43;;;;;;;;;;6276084;28;20025;-77
2022/05/30 09:27:12;;;;;;;7.35;3.13;;;;;;;;;;6283150;28;20437;-78
2022/05/30 09:30:14;;;;;;;4.00;2.55;;;;;;;;;;6282434;28;20013;-77
2022/05/30 09:33:14;;;;;;;7.35;2.50;;;;;;;;;;6281353;28;20504;-77
2022/05/30 09:36:19;;;;;;;3.10;1.63;;;;;;;;;;6278307;28;20028;-77
2022/05/30 09:39:19;;;;;;;3.47;1.55;;;;;;;;;;6289403;28;20032;-78
2022/05/30 09:42:33;;;;;;;2.83;1.70;;;;;;;;;;6279183;28;20013;-78
2022/05/30 09:45:34;;;;;;;3.17;1.42;;;;;;;;;;6279551;28;20033;-78
2022/05/30 09:48:36;;;;;;;6.00;2.78;;;;;;;;;;6280558;28;20044;-78
2022/05/30 09:51:38;;;;;;;5.63;1.98;;;;;;;;;;6278933;28;20077;-77
2022/05/30 09:54:38;;;;;;;3.28;2.00;;;;;;;;;;6273887;28;20355;-77
2022/05/30 09:57:42;;;;;;;5.20;2.23;;;;;;;;;;6281421;28;20036;-77
2022/05/30 10:00:54;;;;;;;3.88;1.85;;;;;;;;;;6282314;28;20085;-77
2022/05/30 10:04:00;;;;;;;2.22;1.80;;;;;;;;;;6277777;28;20049;-77
2022/05/30 10:07:03;;;;;;;2.47;2.03;;;;;;;;;;6276896;28;20021;-77
2022/05/30 10:10:19;;;;;;;3.67;2.30;;;;;;;;;;6279146;28;20060;-77
2022/05/30 10:13:32;;;;;;;4.25;2.30;;;;;;;;;;6296960;28;20033;-77
2022/05/30 10:16:34;;;;;;;4.13;3.00;;;;;;;;;;6276178;28;20459;-78
2022/05/30 10:19:34;;;;;;;2.50;1.98;;;;;;;;;;6274500;28;20049;-77
2022/05/30 10:29:42;;;;;;;4.25;2.03;;;;;;;;;;6264790;28;20493;-77
2022/05/30 10:32:46;;;;;;;3.75;2.40;;;;;;;;;;6244113;28;20120;-77
2022/05/30 10:35:54;;;;;;;4.65;2.60;;;;;;;;;;6263139;28;20052;-77
2022/05/30 10:38:54;;;;;;;3.53;1.88;;;;;;;;;;6267513;28;20020;-76
2022/05/30 10:42:08;;;;;;;4.83;2.60;;;;;;;;;;6270477;28;20025;-77
2022/05/30 10:45:12;;;;;;;3.58;2.97;;;;;;;;;;6273673;28;20519;-77
2022/05/30 10:48:18;;;;;;;4.72;2.92;;;;;;;;;;6277626;28;20077;-77
2022/05/30 10:51:23;;;;;;;5.25;3.53;;;;;;;;;;6278988;28;20028;-77
2022/05/30 10:54:27;;;;;;;7.05;3.33;;;;;;;;;;6279787;28;20055;-77
2022/05/30 10:57:36;;;;;;;4.07;3.08;;;;;;;;;;6273137;28;20021;-77
2022/05/30 11:00:41;;;;;;;5.72;3.60;;;;;;;;;;6276094;28;20499;-78
2022/05/30 11:03:45;;;;;;;5.30;4.07;;;;;;;;;;6277003;28;20021;-78
2022/05/30 11:06:47;;;;;;;8.00;5.10;;;;;;;;;;6272603;28;20026;-77
2022/05/30 11:09:54;;;;;;;11.05;7.43;;;;;;;;;;6259629;28;20017;-78
2022/05/30 11:13:03;;;;;;;9.30;5.70;;;;;;;;;;6272495;28;20052;-77
2022/05/30 11:16:12;;;;;;;8.18;5.78;;;;;;;;;;6260379;28;20370;-77
2022/05/30 11:19:31;;;;;;;8.93;5.32;;;;;;;;;;6258930;28;20037;-77
2022/05/30 11:22:42;;;;;;;8.75;5.85;;;;;;;;;;6264236;28;20017;-77
2022/05/30 11:26:02;;;;;;;10.30;7.15;;;;;;;;;;6278891;28;20062;-77
2022/05/30 11:29:25;;;;;;;13.02;9.52;;;;;;;;;;6260675;28;20036;-77
2022/05/30 11:32:44;;;;;;;10.88;7.93;;;;;;;;;;6226708;28;20087;-77
2022/05/30 11:36:03;;;;;;;11.95;6.65;;;;;;;;;;6259872;28;20060;-77
2022/05/30 11:39:08;;;;;;;6.70;4.30;;;;;;;;;;6272965;28;20021;-77
2022/05/30 11:42:08;;;;;;;5.35;4.22;;;;;;;;;;6275649;28;20043;-77
2022/05/30 11:45:35;;;;;;;6.87;3.83;;;;;;;;;;6271974;28;20020;-77
2022/05/30 11:48:43;;;;;;;7.63;5.30;;;;;;;;;;6251553;28;20124;-77
2022/05/30 11:51:55;;;;;;;6.82;4.65;;;;;;;;;;6267883;28;20032;-76
2022/05/30 11:55:04;;;;;;;8.63;4.63;;;;;;;;;;6266217;28;20113;-77
2022/05/30 11:58:21;;;;;;;7.10;3.72;;;;;;;;;;6271100;28;20036;-77
2022/05/30 12:01:23;;;;;;;7.50;3.85;;;;;;;;;;6268621;28;20107;-77
2022/05/30 12:04:23;;;;;;;8.30;5.93;;;;;;;;;;6267015;28;20029;-77
2022/05/30 12:07:45;;;;;;;6.38;4.82;;;;;;;;;;6265852;28;20322;-77
2022/05/30 12:11:05;;;;;;;15.23;9.57;;;;;;;;;;6265432;28;20017;-77
2022/05/30 12:14:05;;;;;;;11.00;7.82;;;;;;;;;;6257428;28;20033;-77
2022/05/30 12:17:11;;;;;;;8.83;6.30;;;;;;;;;;6269007;28;20535;-77
2022/05/30 12:23:48;;;;;;;9.00;6.90;;;;;;;;;;6271329;28;20025;-77
2022/05/30 12:26:56;;;;;;;9.35;5.32;;;;;;;;;;6286771;28;20025;-77
2022/05/30 12:29:57;;;;;;;6.32;4.65;;;;;;;;;;6268584;28;20056;-77
2022/05/30 12:32:57;;;;;;;7.70;4.75;;;;;;;;;;6262250;28;20028;-77
2022/05/30 12:36:09;;;;;;;5.97;4.47;;;;;;;;;;6254535;28;20068;-77
2022/05/30 12:39:29;;;;;;;9.00;6.63;;;;;;;;;;6265660;28;20036;-77
2022/05/30 12:42:34;;;;;;;8.43;4.50;;;;;;;;;;6269790;28;20021;-77
2022/05/30 12:45:53;;;;;;;4.85;3.83;;;;;;;;;;6261648;28;20017;-77
2022/05/30 12:48:59;;;;;;;20.92;13.73;;;;;;;;;;6265061;28;20408;-76
2022/05/30 12:52:03;;;;;;;3.50;2.97;;;;;;;;;;6264857;28;20464;-77
2022/05/30 12:55:08;;;;;;;5.60;2.92;;;;;;;;;;6261405;28;20013;-77
2022/05/30 12:58:10;;;;;;;4.80;2.40;;;;;;;;;;6265602;28;20018;-77
2022/05/30 13:01:21;;;;;;;2.90;2.20;;;;;;;;;;6261606;28;20031;-77
2022/05/30 13:04:26;;;;;;;3.30;2.30;;;;;;;;;;6273244;28;20013;-77
2022/05/30 13:07:30;;;;;;;3.55;2.20;;;;;;;;;;6262234;28;20036;-75
2022/05/30 13:10:41;;;;;;;3.90;2.53;;;;;;;;;;6262852;28;20033;-76
2022/05/30 13:13:43;;;;;;;4.35;2.13;;;;;;;;;;6261086;28;20032;-76
2022/05/30 13:16:44;;;;;;;8.02;2.75;;;;;;;;;;6263051;28;20469;-76
2022/05/30 13:19:50;;;;;;;3.13;2.10;;;;;;;;;;6281211;28;20040;-76
2022/05/30 13:22:52;;;;;;;7.25;2.35;;;;;;;;;;6274154;28;20020;-76
2022/05/30 13:25:52;;;;;;;5.85;2.25;;;;;;;;;;6269079;28;20019;-76
2022/05/30 13:28:52;;;;;;;3.73;2.13;;;;;;;;;;6255559;28;20018;-77
2022/05/30 13:31:52;;;;;;;4.93;1.80;;;;;;;;;;6262092;28;20014;-77
2022/05/30 13:34:58;;;;;;;4.37;1.90;;;;;;;;;;6266515;28;20025;-78
2022/05/30 13:37:59;;;;;;;2.55;1.98;;;;;;;;;;6269117;28;20837;-77
2022/05/30 13:41:13;;;;;;;2.38;1.55;;;;;;;;;;6269447;28;20021;-77
2022/05/30 13:44:28;;;;;;;4.95;2.90;;;;;;;;;;6263748;28;20032;-77
2022/05/30 13:47:28;;;;;;;3.10;2.47;;;;;;;;;;6269241;28;20027;-77
2022/05/30 13:50:48;;;;;;;3.23;2.13;;;;;;;;;;6271409;28;20044;-78
2022/05/30 13:53:49;;;;;;;3.65;2.40;;;;;;;;;;6265102;28;20032;-78
2022/05/30 13:56:52;;;;;;;2.45;1.50;;;;;;;;;;6266372;28;20017;-77
2022/05/30 13:59:53;;;;;;;2.25;1.50;;;;;;;;;;6274314;28;20021;-77
2022/05/30 14:02:53;;;;;;;2.30;1.65;;;;;;;;;;6268819;28;20071;-78
2022/05/30 14:05:54;;;;;;;2.83;1.90;;;;;;;;;;6275396;28;20674;-78
2022/05/30 14:08:54;;;;;;;3.20;2.07;;;;;;;;;;6269007;28;20017;-77
2022/05/30 14:11:58;;;;;;;2.63;1.90;;;;;;;;;;6274124;28;20044;-76
2022/05/30 14:15:06;;;;;;;1.80;1.48;;;;;;;;;;6273584;28;20025;-77
2022/05/30 14:18:42;;;;;;;1.67;1.48;;;;;;;;;;6276381;28;20017;-77
2022/05/30 14:21:56;;;;;;;3.75;1.63;;;;;;;;;;6170433;28;20054;-77
2022/05/30 14:25:03;;;;;;;2.65;1.48;;;;;;;;;;6266016;28;20040;-77
2022/05/30 14:28:07;;;;;;;2.67;1.30;;;;;;;;;;6261503;28;20064;-77
2022/05/30 14:31:12;;;;;;;1.73;1.00;;;;;;;;;;6265837;28;20021;-76
2022/05/30 14:34:14;;;;;;;2.65;1.30;;;;;;;;;;6265293;28;20021;-77
2022/05/30 14:37:21;;;;;;;2.50;1.50;;;;;;;;;;6283904;28;20119;-77
2022/05/30 14:40:22;;;;;;;3.58;1.60;;;;;;;;;;6278554;28;20018;-77
2022/05/30 14:43:24;;;;;;;3.20;1.70;;;;;;;;;;6267704;28;20503;-76
2022/05/30 14:46:30;;;;;;;1.75;1.50;;;;;;;;;;6270289;28;20037;-76
2022/05/30 14:49:32;;;;;;;3.38;1.40;;;;;;;;;;6273560;28;20385;-76
2022/05/30 14:52:34;;;;;;;2.30;1.88;;;;;;;;;;6266289;28;20036;-76
2022/05/30 14:55:40;;;;;;;5.18;1.40;;;;;;;;;;6273985;28;20540;-76
2022/05/30 14:58:43;;;;;;;3.03;1.40;;;;;;;;;;6265584;28;20029;-76
2022/05/30 15:01:43;;;;;;;3.08;1.70;;;;;;;;;;6279174;28;20068;-76
2022/05/30 15:04:43;;;;;;;3.50;1.77;;;;;;;;;;6257993;28;20018;-77
2022/05/30 15:07:44;;;;;;;3.88;1.88;;;;;;;;;;6254894;28;20023;-77
2022/05/30 15:10:45;;;;;;;3.70;2.60;;;;;;;;;;6271078;28;20068;-77
2022/05/30 15:13:47;;;;;;;6.13;4.82;;;;;;;;;;6270441;28;20028;-78
2022/05/30 15:16:47;;;;;;;4.55;3.67;;;;;;;;;;6270225;28;20111;-77
2022/05/30 15:19:47;;;;;;;3.30;1.77;;;;;;;;;;6276787;28;20139;-77
2022/05/30 15:22:48;;;;;;;3.70;2.07;;;;;;;;;;6272041;28;20111;-76
2022/05/30 15:25:48;;;;;;;13.40;7.40;;;;;;;;;;6266561;28;20120;-76
2022/05/30 15:28:50;;;;;;;25.57;16.27;;;;;;;;;;6274669;28;20492;-77
2022/05/30 15:31:51;;;;;;;10.07;5.18;;;;;;;;;;6272949;28;20029;-77
2022/05/30 15:34:52;;;;;;;5.00;2.72;;;;;;;;;;6270491;28;20151;-77
2022/05/30 15:37:52;;;;;;;4.40;2.17;;;;;;;;;;6266752;28;20122;-77
2022/05/30 15:40:52;;;;;;;3.20;1.93;;;;;;;;;;6261498;28;20025;-77
2022/05/30 15:43:52;;;;;;;6.40;1.77;;;;;;;;;;6265943;28;20020;-77
2022/05/30 15:46:53;;;;;;;3.50;1.63;;;;;;;;;;6270845;28;20027;-77
2022/05/30 15:49:53;;;;;;;6.33;1.83;;;;;;;;;;6267104;28;20055;-78
2022/05/30 15:59:34;;;;;;;3.95;1.38;;;;;;;;;;6270653;28;20021;-77
2022/05/30 16:02:34;;;;;;;1.63;1.33;;;;;;;;;;6265191;28;20024;-77
2022/05/30 16:05:34;;;;;;;3.10;1.70;;;;;;;;;;6263879;28;20523;-76
2022/05/30 16:08:39;;;;;;;3.43;1.90;;;;;;;;;;6264559;28;20055;-77
2022/05/30 16:11:42;;;;;;;6.72;2.17;;;;;;;;;;6273534;28;20016;-76
2022/05/30 16:14:42;;;;;;;2.95;1.50;;;;;;;;;;6268221;28;20017;-76
2022/05/30 16:17:42;;;;;;;4.87;1.60;;;;;;;;;;6271171;28;20012;-77
2022/05/30 16:20:43;;;;;;;3.87;1.40;;;;;;;;;;6268812;28;20408;-77
2022/05/30 16:23:44;;;;;;;2.53;1.60;;;;;;;;;;6269589;28;20029;-77
2022/05/30 16:26:44;;;;;;;5.78;1.90;;;;;;;;;;6271462;28;20020;-77
2022/05/30 16:29:45;;;;;;;5.43;1.57;;;;;;;;;;6270653;28;20340;-77
2022/05/30 16:32:45;;;;;;;3.17;1.73;;;;;;;;;;6268845;28;20017;-77
2022/05/30 16:35:47;;;;;;;1.60;1.30;;;;;;;;;;6262879;28;20036;-77
2022/05/30 16:38:47;;;;;;;2.70;1.48;;;;;;;;;;6261604;28;20116;-77
2022/05/30 16:41:48;;;;;;;3.23;2.13;;;;;;;;;;6259171;28;20078;-76
2022/05/30 16:44:48;;;;;;;4.73;2.70;;;;;;;;;;6257649;28;20067;-77
2022/05/30 16:47:49;;;;;;;5.63;2.47;;;;;;;;;;6262666;28;20021;-76
2022/05/30 16:50:49;;;;;;;4.63;2.90;;;;;;;;;;6266727;28;20033;-78
2022/05/30 16:53:49;;;;;;;3.13;2.43;;;;;;;;;;6260151;28;20127;-77
2022/05/30 16:56:51;;;;;;;3.27;2.60;;;;;;;;;;6260556;28;20029;-77
2022/05/30 16:59:51;;;;;;;3.92;2.40;;;;;;;;;;6265556;28;20020;-78
2022/05/30 17:02:53;;;;;;;4.13;2.77;;;;;;;;;;6266820;28;20036;-77
2022/05/30 17:05:55;;;;;;;4.07;2.80;;;;;;;;;;6265263;28;20047;-76
2022/05/30 17:08:55;;;;;;;2.78;2.10;;;;;;;;;;6264311;28;20052;-77
2022/05/30 17:11:56;;;;;;;5.30;2.60;;;;;;;;;;6265685;28;20029;-77
2022/05/30 17:14:57;;;;;;;3.67;2.27;;;;;;;;;;6263261;28;20021;-77
2022/05/30 17:17:58;;;;;;;3.17;2.00;;;;;;;;;;6267641;28;20048;-77
2022/05/30 17:20:58;;;;;;;2.83;1.92;;;;;;;;;;6270482;28;20045;-77
2022/05/30 17:23:59;;;;;;;5.07;2.27;;;;;;;;;;6266815;28;20456;-76
2022/05/30 17:30:18;;;;;;;3.63;2.30;;;;;;;;;;6253440;28;20038;-76
2022/05/30 17:33:18;;;;;;;3.80;2.50;;;;;;;;;;6266702;28;20028;-76
2022/05/30 17:36:19;;;;;;;6.43;4.27;;;;;;;;;;6273350;28;20047;-75
2022/05/30 17:39:19;;;;;;;6.15;2.85;;;;;;;;;;6273845;28;20028;-77
2022/05/30 17:42:19;;;;;;;2.77;1.80;;;;;;;;;;6269820;28;20048;-77
2022/05/30 17:45:20;;;;;;;4.17;2.13;;;;;;;;;;6271531;28;20142;-77
2022/05/30 17:48:24;;;;;;;5.37;2.10;;;;;;;;;;6280658;28;20114;-77
2022/05/30 17:51:34;;;;;;;6.22;2.92;;;;;;;;;;6264518;28;20052;-77
2022/05/30 17:54:35;;;;;;;4.50;1.60;;;;;;;;;;6262060;28;20071;-77
2022/05/30 17:57:36;;;;;;;2.97;2.03;;;;;;;;;;6263517;28;20067;-77
2022/05/30 18:00:37;;;;;;;3.77;1.90;;;;;;;;;;6260711;28;20021;-77
2022/05/30 18:03:37;;;;;;;3.50;1.70;;;;;;;;;;6268330;28;20037;-76
2022/05/30 18:06:43;;;;;;;6.47;1.73;;;;;;;;;;6269720;28;20024;-78
2022/05/30 18:09:54;;;;;;;2.72;1.80;;;;;;;;;;6262486;28;20062;-77
2022/05/30 18:13:13;;;;;;;3.58;2.53;;;;;;;;;;6261943;28;20017;-77
2022/05/30 18:16:19;;;;;;;13.15;5.53;;;;;;;;;;6263389;28;20040;-77
2022/05/30 18:19:39;;;;;;;8.00;3.97;;;;;;;;;;6271253;28;20748;-77
2022/05/30 18:22:49;;;;;;;4.07;2.53;;;;;;;;;;6270842;28;20020;-76
2022/05/30 18:25:49;;;;;;;3.85;2.20;;;;;;;;;;6269130;28;20028;-76
2022/05/30 18:28:50;;;;;;;8.20;2.83;;;;;;;;;;6265953;28;20039;-76
2022/05/30 18:31:56;;;;;;;3.63;2.17;;;;;;;;;;6261994;28;20025;-77
2022/05/30 18:35:00;;;;;;;3.10;2.20;;;;;;;;;;6258797;28;20564;-77
2022/05/30 18:38:19;;;;;;;5.85;2.50;;;;;;;;;;6264238;28;20072;-77